sensor_id;sensor_type;location;lat;lon;timestamp;temperature;humidity
25482;DHT22;13395;50.752;4.268;2023-12-20T00:00:57;7.20;99.90
25482;DHT22;13395;50.752;4.268;2023-12-20T00:03:23;7.20;99.90
25482;DHT22;13395;50.752;4.268;2023-12-20T00:05:49;7.10;99.90
25482;DHT22;13395;50.752;4.268;2023-12-20T00:08:15;7.10;99.90
25482;DHT22;13395;50.752;4.268;2023-12-20T00:10:41;7.20;99.90
25482;DHT22;13395;50.752;4.268;2023-12-20T00:13:07;7.30;99.90
25482;DHT22;13395;50.752;4.268;2023-12-20T00:15:33;7.40;99.90
25482;DHT22;13395;50.752;4.268;2023-12-20T00:17:59;7.30;99.90
25482;DHT22;13395;50.752;4.268;2023-12-20T00:20:25;7.20;99.90
25482;DHT22;13395;50.752;4.268;2023-12-20T00:22:50;7.30;99.90
25482;DHT22;13395;50.752;4.268;2023-12-20T00:25:16;7.30;99.90
25482;DHT22;13395;50.752;4.268;2023-12-20T00:27:42;7.30;99.90
25482;DHT22;13395;50.752;4.268;2023-12-20T00:30:08;7.30;99.90
25482;DHT22;13395;50.752;4.268;2023-12-20T00:32:35;7.30;99.90
25482;DHT22;13395;50.752;4.268;2023-12-20T00:35:01;7.40;99.90
25482;DHT22;13395;50.752;4.268;2023-12-20T00:37:26;7.20;99.90
25482;DHT22;13395;50.752;4.268;2023-12-20T00:39:52;7.20;99.90
25482;DHT22;13395;50.752;4.268;2023-12-20T00:42:18;7.10;99.90
25482;DHT22;13395;50.752;4.268;2023-12-20T00:44:44;7.00;99.90
25482;DHT22;13395;50.752;4.268;2023-12-20T00:47:10;7.00;99.90
25482;DHT22;13395;50.752;4.268;2023-12-20T00:49:35;6.90;99.90
25482;DHT22;13395;50.752;4.268;2023-12-20T00:52:01;6.90;99.90
25482;DHT22;13395;50.752;4.268;2023-12-20T00:54:26;6.90;99.90
25482;DHT22;13395;50.752;4.268;2023-12-20T00:56:52;6.90;99.90
25482;DHT22;13395;50.752;4.268;2023-12-20T00:59:19;6.90;99.90
25482;DHT22;13395;50.752;4.268;2023-12-20T01:01:44;7.00;99.90
25482;DHT22;13395;50.752;4.268;2023-12-20T01:04:10;7.00;99.90
25482;DHT22;13395;50.752;4.268;2023-12-20T01:06:36;6.80;99.90
25482;DHT22;13395;50.752;4.268;2023-12-20T01:09:01;6.80;99.90
25482;DHT22;13395;50.752;4.268;2023-12-20T01:11:28;6.70;99.90
25482;DHT22;13395;50.752;4.268;2023-12-20T01:13:53;6.70;99.90
25482;DHT22;13395;50.752;4.268;2023-12-20T01:16:19;6.70;99.90
25482;DHT22;13395;50.752;4.268;2023-12-20T01:18:45;6.70;99.90
25482;DHT22;13395;50.752;4.268;2023-12-20T01:21:10;6.60;99.90
25482;DHT22;13395;50.752;4.268;2023-12-20T01:23:36;6.80;99.90
25482;DHT22;13395;50.752;4.268;2023-12-20T01:26:02;6.70;99.90
25482;DHT22;13395;50.752;4.268;2023-12-20T01:28:28;6.70;99.90
25482;DHT22;13395;50.752;4.268;2023-12-20T01:30:54;6.70;99.90
25482;DHT22;13395;50.752;4.268;2023-12-20T01:33:19;6.80;99.90
25482;DHT22;13395;50.752;4.268;2023-12-20T01:35:45;6.70;99.90
25482;DHT22;13395;50.752;4.268;2023-12-20T01:38:10;6.60;99.90
25482;DHT22;13395;50.752;4.268;2023-12-20T01:40:36;6.60;99.90
25482;DHT22;13395;50.752;4.268;2023-12-20T01:43:06;6.60;99.90
25482;DHT22;13395;50.752;4.268;2023-12-20T01:45:34;6.60;99.90
25482;DHT22;13395;50.752;4.268;2023-12-20T01:48:00;6.50;99.90
25482;DHT22;13395;50.752;4.268;2023-12-20T01:50:28;6.50;99.90
25482;DHT22;13395;50.752;4.268;2023-12-20T01:52:55;6.60;99.90
25482;DHT22;13395;50.752;4.268;2023-12-20T01:55:25;6.50;99.90
25482;DHT22;13395;50.752;4.268;2023-12-20T01:57:53;6.40;99.90
25482;DHT22;13395;50.752;4.268;2023-12-20T02:00:19;6.50;99.90
25482;DHT22;13395;50.752;4.268;2023-12-20T02:02:50;6.60;99.90
25482;DHT22;13395;50.752;4.268;2023-12-20T02:05:16;6.50;99.90
25482;DHT22;13395;50.752;4.268;2023-12-20T02:07:42;6.50;99.90
25482;DHT22;13395;50.752;4.268;2023-12-20T02:10:08;6.40;99.90
25482;DHT22;13395;50.752;4.268;2023-12-20T02:12:33;6.40;99.90
25482;DHT22;13395;50.752;4.268;2023-12-20T02:14:59;6.60;99.90
25482;DHT22;13395;50.752;4.268;2023-12-20T02:17:26;6.70;99.90
25482;DHT22;13395;50.752;4.268;2023-12-20T02:19:52;6.70;99.90
25482;DHT22;13395;50.752;4.268;2023-12-20T02:22:18;6.70;99.90
25482;DHT22;13395;50.752;4.268;2023-12-20T02:24:43;6.60;99.90
25482;DHT22;13395;50.752;4.268;2023-12-20T02:27:09;6.60;99.90
25482;DHT22;13395;50.752;4.268;2023-12-20T02:29:35;6.60;99.90
25482;DHT22;13395;50.752;4.268;2023-12-20T02:32:01;6.60;99.90
25482;DHT22;13395;50.752;4.268;2023-12-20T02:34:27;6.60;99.90
25482;DHT22;13395;50.752;4.268;2023-12-20T02:36:53;6.70;99.90
25482;DHT22;13395;50.752;4.268;2023-12-20T02:39:19;6.70;99.90
25482;DHT22;13395;50.752;4.268;2023-12-20T02:41:45;6.70;99.90
25482;DHT22;13395;50.752;4.268;2023-12-20T02:44:10;6.60;99.90
25482;DHT22;13395;50.752;4.268;2023-12-20T02:46:36;6.60;99.90
25482;DHT22;13395;50.752;4.268;2023-12-20T02:49:01;6.50;99.90
25482;DHT22;13395;50.752;4.268;2023-12-20T02:51:27;6.50;99.90
25482;DHT22;13395;50.752;4.268;2023-12-20T02:53:53;6.50;99.90
25482;DHT22;13395;50.752;4.268;2023-12-20T02:56:18;6.50;99.90
25482;DHT22;13395;50.752;4.268;2023-12-20T02:58:44;6.50;99.90
25482;DHT22;13395;50.752;4.268;2023-12-20T03:01:10;6.60;99.90
25482;DHT22;13395;50.752;4.268;2023-12-20T03:03:35;6.50;99.90
25482;DHT22;13395;50.752;4.268;2023-12-20T03:06:01;6.50;99.90
25482;DHT22;13395;50.752;4.268;2023-12-20T03:08:26;6.60;99.90
25482;DHT22;13395;50.752;4.268;2023-12-20T03:10:52;6.60;99.90
25482;DHT22;13395;50.752;4.268;2023-12-20T03:13:19;6.70;99.90
25482;DHT22;13395;50.752;4.268;2023-12-20T03:15:45;6.70;99.90
25482;DHT22;13395;50.752;4.268;2023-12-20T03:18:10;6.70;99.90
25482;DHT22;13395;50.752;4.268;2023-12-20T03:20:36;6.80;99.90
25482;DHT22;13395;50.752;4.268;2023-12-20T03:23:02;6.80;99.90
25482;DHT22;13395;50.752;4.268;2023-12-20T03:25:27;6.90;99.90
25482;DHT22;13395;50.752;4.268;2023-12-20T03:27:53;6.90;99.90
25482;DHT22;13395;50.752;4.268;2023-12-20T03:30:19;7.00;99.90
25482;DHT22;13395;50.752;4.268;2023-12-20T03:32:45;7.10;99.90
25482;DHT22;13395;50.752;4.268;2023-12-20T03:35:11;7.00;99.90
25482;DHT22;13395;50.752;4.268;2023-12-20T03:37:37;7.00;99.90
25482;DHT22;13395;50.752;4.268;2023-12-20T03:40:03;7.10;99.90
25482;DHT22;13395;50.752;4.268;2023-12-20T03:42:28;7.00;99.90
25482;DHT22;13395;50.752;4.268;2023-12-20T03:44:54;7.10;99.90
25482;DHT22;13395;50.752;4.268;2023-12-20T03:47:20;7.00;99.90
25482;DHT22;13395;50.752;4.268;2023-12-20T03:49:45;7.00;99.90
25482;DHT22;13395;50.752;4.268;2023-12-20T03:52:11;7.00;99.90
25482;DHT22;13395;50.752;4.268;2023-12-20T03:54:37;7.00;99.90
25482;DHT22;13395;50.752;4.268;2023-12-20T03:57:03;7.00;99.90
25482;DHT22;13395;50.752;4.268;2023-12-20T03:59:30;6.80;99.90
25482;DHT22;13395;50.752;4.268;2023-12-20T04:01:59;6.80;99.90
25482;DHT22;13395;50.752;4.268;2023-12-20T04:04:25;6.80;99.90
25482;DHT22;13395;50.752;4.268;2023-12-20T04:06:51;6.90;99.90
25482;DHT22;13395;50.752;4.268;2023-12-20T04:09:16;7.00;99.90
25482;DHT22;13395;50.752;4.268;2023-12-20T04:11:42;7.00;99.90
25482;DHT22;13395;50.752;4.268;2023-12-20T04:14:07;7.00;99.90
25482;DHT22;13395;50.752;4.268;2023-12-20T04:16:34;7.10;99.90
25482;DHT22;13395;50.752;4.268;2023-12-20T04:19:00;7.10;99.90
25482;DHT22;13395;50.752;4.268;2023-12-20T04:21:26;7.00;99.90
25482;DHT22;13395;50.752;4.268;2023-12-20T04:23:51;7.10;99.90
25482;DHT22;13395;50.752;4.268;2023-12-20T04:26:17;7.00;99.90
25482;DHT22;13395;50.752;4.268;2023-12-20T04:28:43;7.00;99.90
25482;DHT22;13395;50.752;4.268;2023-12-20T04:31:08;7.00;99.90
25482;DHT22;13395;50.752;4.268;2023-12-20T04:33:34;7.00;99.90
25482;DHT22;13395;50.752;4.268;2023-12-20T04:35:59;6.90;99.90
25482;DHT22;13395;50.752;4.268;2023-12-20T04:38:25;7.00;99.90
25482;DHT22;13395;50.752;4.268;2023-12-20T04:40:51;6.80;99.90
25482;DHT22;13395;50.752;4.268;2023-12-20T04:43:17;6.80;99.90
25482;DHT22;13395;50.752;4.268;2023-12-20T04:45:43;6.90;99.90
25482;DHT22;13395;50.752;4.268;2023-12-20T04:48:08;6.90;99.90
25482;DHT22;13395;50.752;4.268;2023-12-20T04:50:34;6.90;99.90
25482;DHT22;13395;50.752;4.268;2023-12-20T04:53:00;6.80;99.90
25482;DHT22;13395;50.752;4.268;2023-12-20T04:55:25;6.80;99.90
25482;DHT22;13395;50.752;4.268;2023-12-20T04:57:51;6.80;99.90
25482;DHT22;13395;50.752;4.268;2023-12-20T05:00:16;6.80;99.90
25482;DHT22;13395;50.752;4.268;2023-12-20T05:02:42;6.80;99.90
25482;DHT22;13395;50.752;4.268;2023-12-20T05:05:08;6.80;99.90
25482;DHT22;13395;50.752;4.268;2023-12-20T05:07:34;6.70;99.90
25482;DHT22;13395;50.752;4.268;2023-12-20T05:10:00;6.60;99.90
25482;DHT22;13395;50.752;4.268;2023-12-20T05:12:25;6.70;99.90
25482;DHT22;13395;50.752;4.268;2023-12-20T05:14:52;6.70;99.90
25482;DHT22;13395;50.752;4.268;2023-12-20T05:17:17;6.60;99.90
25482;DHT22;13395;50.752;4.268;2023-12-20T05:19:43;6.70;99.90
25482;DHT22;13395;50.752;4.268;2023-12-20T05:22:09;6.70;99.90
25482;DHT22;13395;50.752;4.268;2023-12-20T05:24:35;6.60;99.90
25482;DHT22;13395;50.752;4.268;2023-12-20T05:27:00;6.70;99.90
25482;DHT22;13395;50.752;4.268;2023-12-20T05:29:26;6.60;99.90
25482;DHT22;13395;50.752;4.268;2023-12-20T05:31:51;6.70;99.90
25482;DHT22;13395;50.752;4.268;2023-12-20T05:34:17;6.50;99.90
25482;DHT22;13395;50.752;4.268;2023-12-20T05:36:43;6.40;99.90
25482;DHT22;13395;50.752;4.268;2023-12-20T05:39:08;6.40;99.90
25482;DHT22;13395;50.752;4.268;2023-12-20T05:41:34;6.40;99.90
25482;DHT22;13395;50.752;4.268;2023-12-20T05:44:00;6.40;99.90
25482;DHT22;13395;50.752;4.268;2023-12-20T05:46:26;6.40;99.90
25482;DHT22;13395;50.752;4.268;2023-12-20T05:48:51;6.40;99.90
25482;DHT22;13395;50.752;4.268;2023-12-20T05:51:17;6.30;99.90
25482;DHT22;13395;50.752;4.268;2023-12-20T05:53:44;6.20;99.90
25482;DHT22;13395;50.752;4.268;2023-12-20T05:56:10;6.10;99.90
25482;DHT22;13395;50.752;4.268;2023-12-20T05:58:36;6.10;99.90
25482;DHT22;13395;50.752;4.268;2023-12-20T06:01:05;6.10;99.90
25482;DHT22;13395;50.752;4.268;2023-12-20T06:03:31;6.10;99.90
25482;DHT22;13395;50.752;4.268;2023-12-20T06:05:57;6.10;99.90
25482;DHT22;13395;50.752;4.268;2023-12-20T06:08:22;6.10;99.90
25482;DHT22;13395;50.752;4.268;2023-12-20T06:10:48;6.10;99.90
25482;DHT22;13395;50.752;4.268;2023-12-20T06:13:14;6.10;99.90
25482;DHT22;13395;50.752;4.268;2023-12-20T06:15:40;6.00;99.90
25482;DHT22;13395;50.752;4.268;2023-12-20T06:18:06;6.10;99.90
25482;DHT22;13395;50.752;4.268;2023-12-20T06:20:32;6.10;99.90
25482;DHT22;13395;50.752;4.268;2023-12-20T06:22:58;6.10;99.90
25482;DHT22;13395;50.752;4.268;2023-12-20T06:25:23;6.10;99.90
25482;DHT22;13395;50.752;4.268;2023-12-20T06:27:49;6.00;99.90
25482;DHT22;13395;50.752;4.268;2023-12-20T06:30:16;6.10;99.90
25482;DHT22;13395;50.752;4.268;2023-12-20T06:32:41;6.20;99.90
25482;DHT22;13395;50.752;4.268;2023-12-20T06:35:08;6.20;99.90
25482;DHT22;13395;50.752;4.268;2023-12-20T06:37:34;6.30;99.90
25482;DHT22;13395;50.752;4.268;2023-12-20T06:40:01;6.40;99.90
25482;DHT22;13395;50.752;4.268;2023-12-20T06:42:26;6.40;99.90
25482;DHT22;13395;50.752;4.268;2023-12-20T06:44:52;6.50;99.90
25482;DHT22;13395;50.752;4.268;2023-12-20T06:47:18;6.40;99.90
25482;DHT22;13395;50.752;4.268;2023-12-20T06:49:43;6.30;99.90
25482;DHT22;13395;50.752;4.268;2023-12-20T06:52:09;6.20;99.90
25482;DHT22;13395;50.752;4.268;2023-12-20T06:54:35;6.20;99.90
25482;DHT22;13395;50.752;4.268;2023-12-20T06:57:01;6.00;99.90
25482;DHT22;13395;50.752;4.268;2023-12-20T06:59:28;6.00;99.90
25482;DHT22;13395;50.752;4.268;2023-12-20T07:01:54;6.00;99.90
25482;DHT22;13395;50.752;4.268;2023-12-20T07:04:20;6.00;99.90
25482;DHT22;13395;50.752;4.268;2023-12-20T07:06:48;6.00;99.90
25482;DHT22;13395;50.752;4.268;2023-12-20T07:09:14;5.90;99.90
25482;DHT22;13395;50.752;4.268;2023-12-20T07:11:40;6.00;99.90
25482;DHT22;13395;50.752;4.268;2023-12-20T07:14:06;6.00;99.90
25482;DHT22;13395;50.752;4.268;2023-12-20T07:16:31;5.90;99.90
25482;DHT22;13395;50.752;4.268;2023-12-20T07:18:57;5.90;99.90
25482;DHT22;13395;50.752;4.268;2023-12-20T07:21:23;5.90;99.90
25482;DHT22;13395;50.752;4.268;2023-12-20T07:23:49;5.90;99.90
25482;DHT22;13395;50.752;4.268;2023-12-20T07:26:15;5.90;99.90
25482;DHT22;13395;50.752;4.268;2023-12-20T07:28:41;5.90;99.90
25482;DHT22;13395;50.752;4.268;2023-12-20T07:31:07;5.80;99.90
25482;DHT22;13395;50.752;4.268;2023-12-20T07:33:32;5.80;99.90
25482;DHT22;13395;50.752;4.268;2023-12-20T07:35:59;5.80;99.90
25482;DHT22;13395;50.752;4.268;2023-12-20T07:38:26;5.90;99.90
25482;DHT22;13395;50.752;4.268;2023-12-20T07:40:51;5.80;99.90
25482;DHT22;13395;50.752;4.268;2023-12-20T07:43:17;5.80;99.90
25482;DHT22;13395;50.752;4.268;2023-12-20T07:45:43;5.80;99.90
25482;DHT22;13395;50.752;4.268;2023-12-20T07:48:08;5.80;99.90
25482;DHT22;13395;50.752;4.268;2023-12-20T07:50:34;5.80;99.90
25482;DHT22;13395;50.752;4.268;2023-12-20T07:53:00;5.80;99.90
25482;DHT22;13395;50.752;4.268;2023-12-20T07:55:26;5.80;99.90
25482;DHT22;13395;50.752;4.268;2023-12-20T07:57:52;5.80;99.90
25482;DHT22;13395;50.752;4.268;2023-12-20T08:00:18;5.80;99.90
25482;DHT22;13395;50.752;4.268;2023-12-20T08:02:44;5.80;99.90
25482;DHT22;13395;50.752;4.268;2023-12-20T08:05:10;5.90;99.90
25482;DHT22;13395;50.752;4.268;2023-12-20T08:07:36;6.00;99.90
25482;DHT22;13395;50.752;4.268;2023-12-20T08:10:02;5.90;99.90
25482;DHT22;13395;50.752;4.268;2023-12-20T08:12:27;6.00;99.90
25482;DHT22;13395;50.752;4.268;2023-12-20T08:14:54;5.90;99.90
25482;DHT22;13395;50.752;4.268;2023-12-20T08:17:20;6.00;99.90
25482;DHT22;13395;50.752;4.268;2023-12-20T08:19:45;5.90;99.90
25482;DHT22;13395;50.752;4.268;2023-12-20T08:22:11;6.00;99.90
25482;DHT22;13395;50.752;4.268;2023-12-20T08:24:37;6.00;99.90
25482;DHT22;13395;50.752;4.268;2023-12-20T08:27:04;6.00;99.90
25482;DHT22;13395;50.752;4.268;2023-12-20T08:29:29;6.10;99.90
25482;DHT22;13395;50.752;4.268;2023-12-20T08:31:55;6.10;99.90
25482;DHT22;13395;50.752;4.268;2023-12-20T08:34:21;6.10;99.90
25482;DHT22;13395;50.752;4.268;2023-12-20T08:36:47;6.20;99.90
25482;DHT22;13395;50.752;4.268;2023-12-20T08:39:13;6.30;99.90
25482;DHT22;13395;50.752;4.268;2023-12-20T08:41:38;6.30;99.90
25482;DHT22;13395;50.752;4.268;2023-12-20T08:44:04;6.30;99.90
25482;DHT22;13395;50.752;4.268;2023-12-20T08:46:30;6.30;99.90
25482;DHT22;13395;50.752;4.268;2023-12-20T08:48:56;6.40;99.90
25482;DHT22;13395;50.752;4.268;2023-12-20T08:51:21;6.50;99.90
25482;DHT22;13395;50.752;4.268;2023-12-20T08:53:49;6.50;99.90
25482;DHT22;13395;50.752;4.268;2023-12-20T08:56:15;6.60;99.90
25482;DHT22;13395;50.752;4.268;2023-12-20T08:58:40;6.60;99.90
25482;DHT22;13395;50.752;4.268;2023-12-20T09:01:07;6.60;99.90
25482;DHT22;13395;50.752;4.268;2023-12-20T09:03:33;6.70;99.90
25482;DHT22;13395;50.752;4.268;2023-12-20T09:05:58;6.70;99.90
25482;DHT22;13395;50.752;4.268;2023-12-20T09:08:24;6.80;99.90
25482;DHT22;13395;50.752;4.268;2023-12-20T09:10:49;6.70;99.90
25482;DHT22;13395;50.752;4.268;2023-12-20T09:13:15;6.70;99.90
25482;DHT22;13395;50.752;4.268;2023-12-20T09:15:41;6.80;99.90
25482;DHT22;13395;50.752;4.268;2023-12-20T09:18:07;6.80;99.90
25482;DHT22;13395;50.752;4.268;2023-12-20T09:20:33;6.80;99.90
25482;DHT22;13395;50.752;4.268;2023-12-20T09:22:58;6.80;99.90
25482;DHT22;13395;50.752;4.268;2023-12-20T09:25:24;6.80;99.90
25482;DHT22;13395;50.752;4.268;2023-12-20T09:27:54;6.80;99.90
25482;DHT22;13395;50.752;4.268;2023-12-20T09:30:20;6.90;99.90
25482;DHT22;13395;50.752;4.268;2023-12-20T09:32:45;7.00;99.90
25482;DHT22;13395;50.752;4.268;2023-12-20T09:35:11;7.00;99.90
25482;DHT22;13395;50.752;4.268;2023-12-20T09:37:37;7.10;99.90
25482;DHT22;13395;50.752;4.268;2023-12-20T09:40:03;7.30;99.90
25482;DHT22;13395;50.752;4.268;2023-12-20T09:42:48;7.60;99.90
25482;DHT22;13395;50.752;4.268;2023-12-20T09:45:19;7.80;99.90
25482;DHT22;13395;50.752;4.268;2023-12-20T09:47:46;7.90;99.90
25482;DHT22;13395;50.752;4.268;2023-12-20T09:50:12;8.10;99.90
25482;DHT22;13395;50.752;4.268;2023-12-20T09:52:39;8.30;99.90
25482;DHT22;13395;50.752;4.268;2023-12-20T09:55:06;8.40;99.90
25482;DHT22;13395;50.752;4.268;2023-12-20T09:57:33;8.40;99.90
25482;DHT22;13395;50.752;4.268;2023-12-20T09:59:58;8.50;99.90
25482;DHT22;13395;50.752;4.268;2023-12-20T10:02:25;8.50;99.90
25482;DHT22;13395;50.752;4.268;2023-12-20T10:04:55;8.50;99.90
25482;DHT22;13395;50.752;4.268;2023-12-20T10:07:21;8.50;99.90
25482;DHT22;13395;50.752;4.268;2023-12-20T10:09:48;8.50;99.90
25482;DHT22;13395;50.752;4.268;2023-12-20T10:12:14;8.40;99.90
25482;DHT22;13395;50.752;4.268;2023-12-20T10:14:40;8.30;99.90
25482;DHT22;13395;50.752;4.268;2023-12-20T10:17:06;8.30;99.90
25482;DHT22;13395;50.752;4.268;2023-12-20T10:19:32;8.20;99.90
25482;DHT22;13395;50.752;4.268;2023-12-20T10:22:04;8.30;99.90
25482;DHT22;13395;50.752;4.268;2023-12-20T10:24:30;8.40;99.90
25482;DHT22;13395;50.752;4.268;2023-12-20T10:27:04;8.50;99.90
25482;DHT22;13395;50.752;4.268;2023-12-20T10:29:37;8.60;99.90
25482;DHT22;13395;50.752;4.268;2023-12-20T10:32:23;8.50;99.90
25482;DHT22;13395;50.752;4.268;2023-12-20T10:34:50;8.60;99.90
25482;DHT22;13395;50.752;4.268;2023-12-20T10:37:15;8.60;99.90
25482;DHT22;13395;50.752;4.268;2023-12-20T10:39:42;8.70;99.90
25482;DHT22;13395;50.752;4.268;2023-12-20T10:42:10;8.70;99.90
25482;DHT22;13395;50.752;4.268;2023-12-20T10:44:36;8.80;99.90
25482;DHT22;13395;50.752;4.268;2023-12-20T10:47:03;8.80;99.90
25482;DHT22;13395;50.752;4.268;2023-12-20T10:49:31;8.70;99.90
25482;DHT22;13395;50.752;4.268;2023-12-20T10:51:59;8.70;99.90
25482;DHT22;13395;50.752;4.268;2023-12-20T10:54:28;8.60;99.90
25482;DHT22;13395;50.752;4.268;2023-12-20T10:56:54;8.50;99.90
25482;DHT22;13395;50.752;4.268;2023-12-20T10:59:23;8.60;99.90
25482;DHT22;13395;50.752;4.268;2023-12-20T11:01:50;8.60;99.90
25482;DHT22;13395;50.752;4.268;2023-12-20T11:04:23;8.70;99.90
25482;DHT22;13395;50.752;4.268;2023-12-20T11:07:43;8.80;99.90
25482;DHT22;13395;50.752;4.268;2023-12-20T11:10:13;8.80;99.90
25482;DHT22;13395;50.752;4.268;2023-12-20T11:12:46;9.00;99.90
25482;DHT22;13395;50.752;4.268;2023-12-20T11:15:13;9.00;99.90
25482;DHT22;13395;50.752;4.268;2023-12-20T11:17:39;9.00;99.90
25482;DHT22;13395;50.752;4.268;2023-12-20T11:20:07;8.90;99.90
25482;DHT22;13395;50.752;4.268;2023-12-20T11:22:34;9.00;99.90
25482;DHT22;13395;50.752;4.268;2023-12-20T11:25:04;9.00;99.90
25482;DHT22;13395;50.752;4.268;2023-12-20T11:27:31;9.00;99.90
25482;DHT22;13395;50.752;4.268;2023-12-20T11:29:58;8.90;99.90
25482;DHT22;13395;50.752;4.268;2023-12-20T11:34:56;8.90;99.90
25482;DHT22;13395;50.752;4.268;2023-12-20T11:37:29;9.10;99.90
25482;DHT22;13395;50.752;4.268;2023-12-20T11:39:56;9.20;99.90
25482;DHT22;13395;50.752;4.268;2023-12-20T11:42:22;9.30;99.90
25482;DHT22;13395;50.752;4.268;2023-12-20T11:44:47;9.20;99.90
25482;DHT22;13395;50.752;4.268;2023-12-20T11:47:13;9.20;99.90
25482;DHT22;13395;50.752;4.268;2023-12-20T11:49:41;9.30;99.90
25482;DHT22;13395;50.752;4.268;2023-12-20T11:52:06;9.30;99.90
25482;DHT22;13395;50.752;4.268;2023-12-20T11:54:32;9.10;99.90
25482;DHT22;13395;50.752;4.268;2023-12-20T11:56:58;9.00;99.90
25482;DHT22;13395;50.752;4.268;2023-12-20T11:59:23;9.10;99.90
25482;DHT22;13395;50.752;4.268;2023-12-20T12:01:49;9.20;99.90
25482;DHT22;13395;50.752;4.268;2023-12-20T12:04:20;9.10;99.90
25482;DHT22;13395;50.752;4.268;2023-12-20T12:06:46;9.20;99.90
25482;DHT22;13395;50.752;4.268;2023-12-20T12:09:11;9.20;99.90
25482;DHT22;13395;50.752;4.268;2023-12-20T12:11:37;9.10;99.90
25482;DHT22;13395;50.752;4.268;2023-12-20T12:14:03;9.10;99.90
25482;DHT22;13395;50.752;4.268;2023-12-20T12:16:29;9.10;99.90
25482;DHT22;13395;50.752;4.268;2023-12-20T12:18:59;9.20;99.90
25482;DHT22;13395;50.752;4.268;2023-12-20T12:21:26;9.20;99.90
25482;DHT22;13395;50.752;4.268;2023-12-20T12:23:52;9.20;99.90
25482;DHT22;13395;50.752;4.268;2023-12-20T12:26:18;9.30;99.90
25482;DHT22;13395;50.752;4.268;2023-12-20T12:28:44;9.30;99.90
25482;DHT22;13395;50.752;4.268;2023-12-20T12:31:14;9.40;99.90
25482;DHT22;13395;50.752;4.268;2023-12-20T12:33:42;9.40;99.90
25482;DHT22;13395;50.752;4.268;2023-12-20T12:36:10;9.50;99.90
25482;DHT22;13395;50.752;4.268;2023-12-20T12:38:36;9.40;99.90
25482;DHT22;13395;50.752;4.268;2023-12-20T12:41:02;9.40;99.90
25482;DHT22;13395;50.752;4.268;2023-12-20T12:43:28;9.50;99.90
25482;DHT22;13395;50.752;4.268;2023-12-20T12:45:53;9.50;99.90
25482;DHT22;13395;50.752;4.268;2023-12-20T12:48:20;9.50;99.90
25482;DHT22;13395;50.752;4.268;2023-12-20T12:50:46;9.40;99.90
25482;DHT22;13395;50.752;4.268;2023-12-20T12:53:11;9.50;99.90
25482;DHT22;13395;50.752;4.268;2023-12-20T12:55:37;9.50;99.90
25482;DHT22;13395;50.752;4.268;2023-12-20T12:58:03;9.50;99.90
25482;DHT22;13395;50.752;4.268;2023-12-20T13:00:28;9.60;99.90
25482;DHT22;13395;50.752;4.268;2023-12-20T13:02:54;9.60;99.90
25482;DHT22;13395;50.752;4.268;2023-12-20T13:05:20;9.70;99.90
25482;DHT22;13395;50.752;4.268;2023-12-20T13:07:45;9.80;99.90
25482;DHT22;13395;50.752;4.268;2023-12-20T13:10:11;9.80;99.90
25482;DHT22;13395;50.752;4.268;2023-12-20T13:12:37;9.80;99.90
25482;DHT22;13395;50.752;4.268;2023-12-20T13:15:03;9.90;99.90
25482;DHT22;13395;50.752;4.268;2023-12-20T13:17:31;9.90;99.90
25482;DHT22;13395;50.752;4.268;2023-12-20T13:19:57;9.90;99.90
25482;DHT22;13395;50.752;4.268;2023-12-20T13:22:22;9.90;99.90
25482;DHT22;13395;50.752;4.268;2023-12-20T13:24:49;9.90;99.90
25482;DHT22;13395;50.752;4.268;2023-12-20T13:27:14;9.80;99.90
25482;DHT22;13395;50.752;4.268;2023-12-20T13:29:40;9.80;99.90
25482;DHT22;13395;50.752;4.268;2023-12-20T13:32:06;9.80;99.90
25482;DHT22;13395;50.752;4.268;2023-12-20T13:34:32;9.90;99.90
25482;DHT22;13395;50.752;4.268;2023-12-20T13:36:57;9.80;99.90
25482;DHT22;13395;50.752;4.268;2023-12-20T13:39:23;9.90;99.90
25482;DHT22;13395;50.752;4.268;2023-12-20T13:41:49;9.90;99.90
25482;DHT22;13395;50.752;4.268;2023-12-20T13:44:14;9.90;99.90
25482;DHT22;13395;50.752;4.268;2023-12-20T13:46:41;10.00;99.90
25482;DHT22;13395;50.752;4.268;2023-12-20T13:49:07;10.10;99.90
25482;DHT22;13395;50.752;4.268;2023-12-20T13:51:32;10.00;99.90
25482;DHT22;13395;50.752;4.268;2023-12-20T13:53:58;10.00;99.90
25482;DHT22;13395;50.752;4.268;2023-12-20T13:56:25;9.90;99.90
25482;DHT22;13395;50.752;4.268;2023-12-20T13:58:50;9.90;99.90
25482;DHT22;13395;50.752;4.268;2023-12-20T14:01:16;10.00;99.90
25482;DHT22;13395;50.752;4.268;2023-12-20T14:03:42;10.00;99.90
25482;DHT22;13395;50.752;4.268;2023-12-20T14:06:08;10.10;99.90
25482;DHT22;13395;50.752;4.268;2023-12-20T14:08:34;10.00;99.90
25482;DHT22;13395;50.752;4.268;2023-12-20T14:10:59;10.00;99.90
25482;DHT22;13395;50.752;4.268;2023-12-20T14:13:26;10.00;99.90
25482;DHT22;13395;50.752;4.268;2023-12-20T14:15:52;10.00;99.90
25482;DHT22;13395;50.752;4.268;2023-12-20T14:18:20;10.00;99.90
25482;DHT22;13395;50.752;4.268;2023-12-20T14:20:45;10.00;99.90
25482;DHT22;13395;50.752;4.268;2023-12-20T14:23:12;9.90;99.90
25482;DHT22;13395;50.752;4.268;2023-12-20T14:25:41;9.90;99.90
25482;DHT22;13395;50.752;4.268;2023-12-20T14:28:07;10.00;99.90
25482;DHT22;13395;50.752;4.268;2023-12-20T14:30:33;10.00;99.90
25482;DHT22;13395;50.752;4.268;2023-12-20T14:32:59;10.10;99.90
25482;DHT22;13395;50.752;4.268;2023-12-20T14:35:24;10.10;99.90
25482;DHT22;13395;50.752;4.268;2023-12-20T14:37:50;10.20;99.90
25482;DHT22;13395;50.752;4.268;2023-12-20T14:40:16;10.20;99.90
25482;DHT22;13395;50.752;4.268;2023-12-20T14:42:42;10.20;99.90
25482;DHT22;13395;50.752;4.268;2023-12-20T14:45:09;10.20;99.90
25482;DHT22;13395;50.752;4.268;2023-12-20T14:47:34;10.20;99.90
25482;DHT22;13395;50.752;4.268;2023-12-20T14:50:03;10.20;99.90
25482;DHT22;13395;50.752;4.268;2023-12-20T14:52:29;10.20;99.90
25482;DHT22;13395;50.752;4.268;2023-12-20T14:54:55;10.30;99.90
25482;DHT22;13395;50.752;4.268;2023-12-20T14:57:21;10.30;99.90
25482;DHT22;13395;50.752;4.268;2023-12-20T14:59:46;10.20;99.90
25482;DHT22;13395;50.752;4.268;2023-12-20T15:02:12;10.20;99.90
25482;DHT22;13395;50.752;4.268;2023-12-20T15:07:13;10.20;99.90
25482;DHT22;13395;50.752;4.268;2023-12-20T15:14:49;10.20;99.90
25482;DHT22;13395;50.752;4.268;2023-12-20T15:17:16;10.20;99.90
25482;DHT22;13395;50.752;4.268;2023-12-20T15:22:17;10.10;99.90
25482;DHT22;13395;50.752;4.268;2023-12-20T15:24:43;10.00;99.90
25482;DHT22;13395;50.752;4.268;2023-12-20T15:27:12;10.00;99.90
25482;DHT22;13395;50.752;4.268;2023-12-20T15:56:24;9.70;99.90
25482;DHT22;13395;50.752;4.268;2023-12-20T15:58:50;10.20;99.90
25482;DHT22;13395;50.752;4.268;2023-12-20T16:01:17;10.20;99.90
25482;DHT22;13395;50.752;4.268;2023-12-20T16:03:43;10.10;99.90
25482;DHT22;13395;50.752;4.268;2023-12-20T16:06:09;10.10;99.90
25482;DHT22;13395;50.752;4.268;2023-12-20T16:08:35;10.10;99.90
25482;DHT22;13395;50.752;4.268;2023-12-20T16:11:00;10.20;99.90
25482;DHT22;13395;50.752;4.268;2023-12-20T16:13:26;10.20;99.90
25482;DHT22;13395;50.752;4.268;2023-12-20T16:15:52;10.20;99.90
25482;DHT22;13395;50.752;4.268;2023-12-20T16:18:18;10.10;99.90